createdAt,value
2022-11-08T00:02:23.526Z,15.93
2022-11-08T00:04:50.344Z,16.57
2022-11-08T00:07:35.545Z,16.73
2022-11-08T00:10:21.086Z,16.70
2022-11-08T00:13:06.445Z,17.17
2022-11-08T00:15:38.918Z,17.27
2022-11-08T00:18:07.318Z,17.63
2022-11-08T00:20:34.122Z,18.57
2022-11-08T00:23:01.084Z,17.83
2022-11-08T00:25:27.722Z,18.73
2022-11-08T00:27:54.404Z,19.17
2022-11-08T00:30:21.023Z,16.97
2022-11-08T00:32:47.908Z,17.60
2022-11-08T00:35:14.667Z,18.00
2022-11-08T00:37:41.235Z,19.10
2022-11-08T00:40:08.235Z,17.33
2022-11-08T00:42:34.860Z,16.37
2022-11-08T00:45:01.528Z,16.43
2022-11-08T00:47:28.170Z,17.60
2022-11-08T00:49:55.359Z,16.87
2022-11-08T00:52:22.142Z,16.83
2022-11-08T00:54:48.778Z,16.90
2022-11-08T00:57:15.386Z,16.33
2022-11-08T00:59:42.068Z,16.50
2022-11-08T01:02:08.706Z,18.27
2022-11-08T01:04:35.479Z,17.83
2022-11-08T01:07:02.330Z,16.27
2022-11-08T01:09:29.009Z,17.37
2022-11-08T01:11:55.619Z,16.57
2022-11-08T01:14:22.259Z,16.53
2022-11-08T01:16:48.902Z,17.47
2022-11-08T01:19:15.489Z,16.20
2022-11-08T01:21:42.078Z,17.30
2022-11-08T01:24:08.955Z,17.20
2022-11-08T01:26:35.548Z,16.87
2022-11-08T01:29:02.292Z,17.17
2022-11-08T01:31:31.941Z,17.83
2022-11-08T01:33:59.635Z,17.83
2022-11-08T01:36:28.592Z,16.70
2022-11-08T01:38:56.365Z,17.87
2022-11-08T01:41:24.944Z,17.07
2022-11-08T01:43:56.793Z,16.40
2022-11-08T01:46:33.028Z,16.67
2022-11-08T01:49:17.222Z,16.60
2022-11-08T01:52:04.826Z,15.80
2022-11-08T01:55:04.949Z,15.60
2022-11-08T01:57:38.661Z,17.20
2022-11-08T02:00:08.579Z,15.83
2022-11-08T02:02:36.975Z,16.10
2022-11-08T02:05:06.647Z,15.73
2022-11-08T02:07:34.724Z,17.67
2022-11-08T02:10:03.249Z,17.53
2022-11-08T02:12:30.347Z,16.80
2022-11-08T02:14:57.158Z,18.07
2022-11-08T02:17:23.765Z,17.70
2022-11-08T02:19:51.203Z,16.97
2022-11-08T02:22:33.430Z,17.43
2022-11-08T02:25:00.398Z,16.50
2022-11-08T02:27:27.082Z,16.10
2022-11-08T02:29:55.834Z,16.33
2022-11-08T02:32:23.310Z,16.23
2022-11-08T02:34:56.288Z,17.30
2022-11-08T02:37:23.774Z,17.20
2022-11-08T02:39:50.463Z,17.57
2022-11-08T02:42:19.864Z,16.53
2022-11-08T02:44:47.412Z,16.77
2022-11-08T02:47:14.424Z,16.90
2022-11-08T02:49:41.168Z,17.13
2022-11-08T02:52:08.028Z,16.80
2022-11-08T02:54:34.802Z,16.60
2022-11-08T02:57:01.448Z,16.57
2022-11-08T02:59:28.074Z,17.33
2022-11-08T03:01:54.829Z,16.70
2022-11-08T03:04:21.589Z,16.80
2022-11-08T03:06:48.230Z,16.00
2022-11-08T03:09:14.868Z,16.70
2022-11-08T03:11:41.591Z,16.17
2022-11-08T03:14:08.364Z,16.67
2022-11-08T03:16:35.032Z,16.53
2022-11-08T03:19:01.831Z,16.40
2022-11-08T03:21:28.557Z,16.83
2022-11-08T03:23:55.183Z,15.07
2022-11-08T03:26:21.908Z,17.40
2022-11-08T03:28:48.571Z,16.87
2022-11-08T03:31:15.169Z,16.83
2022-11-08T03:33:41.797Z,16.23
2022-11-08T03:36:08.770Z,17.73
2022-11-08T03:38:35.452Z,16.80
2022-11-08T03:41:02.047Z,16.77
2022-11-08T03:43:28.659Z,16.80
2022-11-08T03:45:55.318Z,16.63
2022-11-08T03:48:23.724Z,17.30
2022-11-08T03:50:53.159Z,16.73
2022-11-08T03:53:19.752Z,18.30
2022-11-08T03:55:46.449Z,16.87
2022-11-08T03:58:13.231Z,17.37
2022-11-08T04:00:39.945Z,16.10
2022-11-08T04:03:06.597Z,18.03
2022-11-08T04:05:33.628Z,16.77
2022-11-08T04:08:03.089Z,16.20
2022-11-08T04:10:29.749Z,17.80
2022-11-08T04:13:18.241Z,16.70
2022-11-08T04:15:46.061Z,16.67
2022-11-08T04:18:31.459Z,16.63
2022-11-08T04:21:18.948Z,17.03
2022-11-08T04:23:46.610Z,18.83
2022-11-08T04:26:13.382Z,16.73
2022-11-08T04:28:41.498Z,16.90
2022-11-08T04:31:18.100Z,18.17
2022-11-08T04:33:45.006Z,17.37
2022-11-08T04:36:14.155Z,19.13
2022-11-08T04:38:41.128Z,18.00
2022-11-08T04:41:11.479Z,17.10
2022-11-08T04:43:38.684Z,18.33
2022-11-08T04:46:07.977Z,16.83
2022-11-08T04:48:35.575Z,17.53
2022-11-08T04:51:07.752Z,17.77
2022-11-08T04:53:34.875Z,17.50
2022-11-08T04:56:12.798Z,18.33
2022-11-08T04:58:42.003Z,17.80
2022-11-08T05:01:11.130Z,16.93
2022-11-08T05:03:37.810Z,17.47
2022-11-08T05:06:06.801Z,19.70
2022-11-08T05:08:33.953Z,18.10
2022-11-08T05:11:05.290Z,19.00
2022-11-08T05:13:32.046Z,18.67
2022-11-08T05:16:07.629Z,17.53
2022-11-08T05:18:34.958Z,18.93
2022-11-08T05:21:21.223Z,21.77
2022-11-08T05:23:49.894Z,19.77
2022-11-08T05:26:18.404Z,20.57
2022-11-08T05:28:45.013Z,18.70
2022-11-08T05:31:12.392Z,18.37
2022-11-08T05:33:38.972Z,19.77
2022-11-08T05:36:08.220Z,18.27
2022-11-08T05:38:34.960Z,18.47
2022-11-08T05:41:14.090Z,17.00
2022-11-08T05:43:40.728Z,19.80
2022-11-08T05:46:08.103Z,17.60
2022-11-08T05:48:35.425Z,20.80
2022-11-08T05:51:02.169Z,17.17
2022-11-08T05:53:28.969Z,16.77
2022-11-08T05:55:59.872Z,18.70
2022-11-08T05:58:27.273Z,19.03
2022-11-08T06:01:12.575Z,18.30
2022-11-08T06:03:39.685Z,18.07
2022-11-08T06:06:09.138Z,18.33
2022-11-08T06:08:36.152Z,20.93
2022-11-08T06:11:10.735Z,18.80
2022-11-08T06:13:37.960Z,18.33
2022-11-08T06:16:07.197Z,17.90
2022-11-08T06:18:34.740Z,17.97
2022-11-08T06:21:02.881Z,20.07
2022-11-08T06:23:29.633Z,17.97
2022-11-08T06:25:56.580Z,17.67
2022-11-08T06:28:23.483Z,17.57
2022-11-08T06:30:50.724Z,17.93
2022-11-08T06:33:18.223Z,18.07
2022-11-08T06:35:45.157Z,18.67
2022-11-08T06:38:12.058Z,18.77
2022-11-08T06:40:39.991Z,18.77
2022-11-08T06:43:06.719Z,18.07
2022-11-08T06:45:33.472Z,19.67
2022-11-08T06:48:01.808Z,21.90
2022-11-08T06:50:30.240Z,23.17
2022-11-08T06:53:05.950Z,25.60
2022-11-08T06:55:33.870Z,24.23
2022-11-08T06:58:01.023Z,23.93
2022-11-08T07:00:28.247Z,23.87
2022-11-08T07:02:56.424Z,19.00
2022-11-08T07:05:23.629Z,20.20
2022-11-08T07:07:53.626Z,19.33
2022-11-08T07:10:22.961Z,19.37
2022-11-08T07:12:50.947Z,18.07
2022-11-08T07:15:17.943Z,17.67
2022-11-08T07:17:44.585Z,18.23
2022-11-08T07:20:11.725Z,16.70
2022-11-08T07:22:38.345Z,18.80
2022-11-08T07:25:05.636Z,18.60
2022-11-08T07:27:32.359Z,19.80
2022-11-08T07:29:59.925Z,18.07
2022-11-08T07:32:26.546Z,18.33
2022-11-08T07:34:53.107Z,17.37
2022-11-08T07:37:19.707Z,17.83
2022-11-08T07:39:46.311Z,15.87
2022-11-08T07:42:12.893Z,17.43
2022-11-08T07:44:39.524Z,16.77
2022-11-08T07:47:06.218Z,16.77
2022-11-08T07:49:32.808Z,17.30
2022-11-08T07:51:59.391Z,17.87
2022-11-08T07:54:26.024Z,17.47
2022-11-08T07:56:52.609Z,16.20
2022-11-08T07:59:19.196Z,14.20
2022-11-08T08:01:45.853Z,13.70
2022-11-08T08:04:12.668Z,13.33
2022-11-08T08:06:39.303Z,14.20
2022-11-08T08:09:05.942Z,14.47
2022-11-08T08:11:33.935Z,13.30
2022-11-08T08:14:00.775Z,14.20
2022-11-08T08:16:27.368Z,14.37
2022-11-08T08:18:56.686Z,12.20
2022-11-08T08:21:23.721Z,12.27
2022-11-08T08:23:50.396Z,12.20
2022-11-08T08:26:17.006Z,14.27
2022-11-08T08:28:43.628Z,13.03
2022-11-08T08:31:10.190Z,13.03
2022-11-08T08:33:37.966Z,13.00
2022-11-08T08:36:05.277Z,13.37
2022-11-08T08:38:33.383Z,13.07
2022-11-08T08:41:00.947Z,11.53
2022-11-08T08:43:27.917Z,12.27
2022-11-08T08:45:58.243Z,12.87
2022-11-08T08:48:24.861Z,12.00
2022-11-08T08:50:51.499Z,12.57
2022-11-08T08:53:18.416Z,11.97
2022-11-08T08:55:45.160Z,11.23
2022-11-08T08:58:11.877Z,12.80
2022-11-08T09:03:25.667Z,12.97
2022-11-08T09:05:52.257Z,12.43
2022-11-08T09:08:19.069Z,12.37
2022-11-08T09:10:45.953Z,11.13
2022-11-08T09:13:12.547Z,12.77
2022-11-08T09:15:39.603Z,12.47
2022-11-08T09:18:06.764Z,12.90
2022-11-08T09:20:33.430Z,13.67
2022-11-08T09:23:03.937Z,11.83
2022-11-08T09:25:31.316Z,13.70
2022-11-08T09:27:57.939Z,12.47
2022-11-08T09:30:24.598Z,11.83
2022-11-08T09:33:00.899Z,13.33
2022-11-08T09:35:29.183Z,13.07
2022-11-08T09:37:56.208Z,13.07
2022-11-08T09:40:39.663Z,13.73
2022-11-08T09:43:27.394Z,12.10
2022-11-08T09:45:56.148Z,13.27
2022-11-08T09:48:38.890Z,13.07
2022-11-08T09:51:18.307Z,11.53
2022-11-08T09:53:51.906Z,12.63
2022-11-08T09:56:21.605Z,11.60
2022-11-08T09:58:54.846Z,12.33
2022-11-08T10:01:26.838Z,11.07
2022-11-08T10:03:57.657Z,11.20
2022-11-08T10:06:59.398Z,11.70
2022-11-08T10:09:40.597Z,12.20
2022-11-08T10:12:31.701Z,12.30
2022-11-08T10:15:30.315Z,12.33
2022-11-08T10:17:57.293Z,13.10
2022-11-08T10:20:26.909Z,11.87
2022-11-08T10:23:23.923Z,12.60
2022-11-08T10:25:54.775Z,11.73
2022-11-08T10:28:42.128Z,11.67
2022-11-08T10:31:12.811Z,11.47
2022-11-08T10:34:00.672Z,12.43
2022-11-08T10:36:54.551Z,13.07
2022-11-08T10:39:27.941Z,11.70
2022-11-08T10:42:08.151Z,12.20
2022-11-08T10:44:35.510Z,11.47
2022-11-08T10:47:05.729Z,11.53
2022-11-08T10:49:34.998Z,10.20
2022-11-08T10:52:16.565Z,10.77
2022-11-08T10:54:45.898Z,10.70
2022-11-08T10:57:17.953Z,13.23
2022-11-08T10:59:45.481Z,12.97
2022-11-08T11:02:35.458Z,10.87
2022-11-08T11:05:21.829Z,12.70
2022-11-08T11:08:01.915Z,11.73
2022-11-08T11:10:46.663Z,11.27
2022-11-08T11:16:05.601Z,11.13
2022-11-08T11:18:46.842Z,10.87
2022-11-08T11:21:22.168Z,10.30
2022-11-08T11:24:10.248Z,8.87
2022-11-08T11:27:05.220Z,10.67
2022-11-08T11:29:34.648Z,9.17
2022-11-08T11:32:40.152Z,9.47
2022-11-08T11:35:14.257Z,10.53
2022-11-08T11:37:46.055Z,9.40
2022-11-08T11:40:18.474Z,9.37
2022-11-08T11:43:02.844Z,9.63
2022-11-08T11:45:36.587Z,10.03
2022-11-08T11:48:11.913Z,8.77
2022-11-08T11:50:41.092Z,8.90
2022-11-08T11:53:16.566Z,8.70
2022-11-08T11:56:13.513Z,8.67
2022-11-08T11:58:51.822Z,9.40
2022-11-08T12:01:30.210Z,10.23
2022-11-08T12:04:30.718Z,9.87
2022-11-08T12:07:18.002Z,10.07
2022-11-08T12:09:47.461Z,9.57
2022-11-08T12:12:36.005Z,9.30
2022-11-08T12:15:23.978Z,10.37
2022-11-08T12:18:02.864Z,9.77
2022-11-08T12:20:48.221Z,8.67
2022-11-08T12:23:36.022Z,8.83
2022-11-08T12:26:30.141Z,8.00
2022-11-08T12:29:24.151Z,8.33
2022-11-08T12:32:46.346Z,8.33
2022-11-08T12:35:19.841Z,7.80
2022-11-08T12:38:11.026Z,9.03
2022-11-08T12:41:02.433Z,6.60
2022-11-08T12:43:47.455Z,7.63
2022-11-08T12:46:19.156Z,8.73
2022-11-08T12:49:12.160Z,8.57
2022-11-08T12:51:52.440Z,7.00
2022-11-08T12:54:39.292Z,8.00
2022-11-08T12:57:11.561Z,8.37
2022-11-08T12:59:58.452Z,8.03
2022-11-08T13:02:30.167Z,8.33
2022-11-08T13:05:08.273Z,8.10
2022-11-08T13:07:43.647Z,8.20
2022-11-08T13:10:43.889Z,8.77
2022-11-08T13:13:32.046Z,8.23
2022-11-08T13:16:16.925Z,8.63
2022-11-08T13:18:56.478Z,8.50
2022-11-08T13:21:28.782Z,8.10
2022-11-08T13:24:43.325Z,7.00
2022-11-08T13:27:38.852Z,7.33
2022-11-08T13:30:05.658Z,7.87
2022-11-08T13:32:44.139Z,7.73
2022-11-08T13:35:19.810Z,7.40
2022-11-08T13:37:55.650Z,7.40
2022-11-08T13:40:39.481Z,7.23
2022-11-08T13:43:27.074Z,7.93
2022-11-08T13:45:54.312Z,7.73
2022-11-08T13:48:37.756Z,8.40
2022-11-08T13:51:24.109Z,8.40
2022-11-08T13:53:58.128Z,8.10
2022-11-08T13:56:56.850Z,8.27
2022-11-08T13:59:29.295Z,7.73
2022-11-08T14:02:15.816Z,8.20
2022-11-08T14:04:42.476Z,7.97
2022-11-08T14:07:22.237Z,8.10
2022-11-08T14:10:10.615Z,8.07
2022-11-08T14:12:43.060Z,9.70
2022-11-08T14:15:28.712Z,8.60
2022-11-08T14:18:00.142Z,9.33
2022-11-08T14:20:36.402Z,9.10
2022-11-08T14:23:11.868Z,8.20
2022-11-08T14:25:39.946Z,9.20
2022-11-08T14:28:29.837Z,10.03
2022-11-08T14:30:57.921Z,10.20
2022-11-08T14:33:32.153Z,9.30
2022-11-08T14:36:02.770Z,9.53
2022-11-08T14:38:32.742Z,9.13
2022-11-08T14:41:02.662Z,9.13
2022-11-08T14:43:29.866Z,10.03
2022-11-08T14:46:00.219Z,18.13
2022-11-08T14:48:31.267Z,12.63
2022-11-08T14:50:59.501Z,10.47
2022-11-08T14:53:31.689Z,9.70
2022-11-08T14:56:08.253Z,8.40
2022-11-08T14:58:34.914Z,8.60
2022-11-08T15:01:03.853Z,9.90
2022-11-08T15:03:31.952Z,8.83
2022-11-08T15:06:07.302Z,9.73
2022-11-08T15:08:45.452Z,9.57
2022-11-08T15:11:28.626Z,9.17
2022-11-08T15:14:02.253Z,10.53
2022-11-08T15:16:39.254Z,9.33
2022-11-08T15:19:18.371Z,9.83
2022-11-08T15:21:49.390Z,11.47
2022-11-08T15:24:16.994Z,12.50
2022-11-08T15:27:12.046Z,11.87
2022-11-08T15:29:55.012Z,10.07
2022-11-08T15:32:23.231Z,11.00
2022-11-08T15:34:56.910Z,9.73
2022-11-08T15:37:36.711Z,10.23
2022-11-08T15:40:16.387Z,9.17
2022-11-08T15:42:45.175Z,9.90
2022-11-08T15:45:14.480Z,9.67
2022-11-08T15:47:46.485Z,9.07
2022-11-08T15:50:13.247Z,8.43
2022-11-08T15:52:43.038Z,8.80
2022-11-08T15:55:17.853Z,9.70
2022-11-08T15:57:46.838Z,9.73
2022-11-08T16:00:27.958Z,9.33
2022-11-08T16:02:55.280Z,9.17
2022-11-08T16:05:24.347Z,8.73
2022-11-08T16:07:51.581Z,10.57
2022-11-08T16:10:21.797Z,10.77
2022-11-08T16:12:48.622Z,9.43
2022-11-08T16:15:17.829Z,11.70
2022-11-08T16:17:44.498Z,10.03
2022-11-08T16:20:27.742Z,11.40
2022-11-08T16:22:58.980Z,10.50
2022-11-08T16:25:28.436Z,9.90
2022-11-08T16:28:02.685Z,11.30
2022-11-08T16:30:31.535Z,9.90
2022-11-08T16:32:58.521Z,9.87
2022-11-08T16:35:25.733Z,13.10
2022-11-08T16:37:53.616Z,12.03
2022-11-08T16:40:24.830Z,11.40
2022-11-08T16:42:53.132Z,10.73
2022-11-08T16:45:43.469Z,10.53
2022-11-08T16:48:16.528Z,11.03
2022-11-08T16:50:43.841Z,10.70
2022-11-08T16:53:21.493Z,9.47
2022-11-08T16:55:49.048Z,11.30
2022-11-08T16:58:15.944Z,12.67
2022-11-08T17:00:44.313Z,15.13
2022-11-08T17:03:18.475Z,16.90
2022-11-08T17:05:45.169Z,16.87
2022-11-08T17:08:11.794Z,15.40
2022-11-08T17:10:38.607Z,14.60
2022-11-08T17:13:05.260Z,16.60
2022-11-08T17:15:32.037Z,23.60
2022-11-08T17:17:59.253Z,24.00
2022-11-08T17:20:27.236Z,24.07
2022-11-08T17:22:54.324Z,25.53
2022-11-08T17:25:23.166Z,26.43
2022-11-08T17:27:51.406Z,21.43
2022-11-08T17:30:23.799Z,14.77
2022-11-08T17:32:53.077Z,10.80
2022-11-08T17:35:19.729Z,9.63
2022-11-08T17:37:46.367Z,9.67
2022-11-08T17:40:13.093Z,10.27
2022-11-08T17:42:39.792Z,11.07
2022-11-08T17:45:08.804Z,9.83
2022-11-08T17:47:36.454Z,9.23
2022-11-08T17:50:03.339Z,9.10
2022-11-08T17:52:29.987Z,10.73
2022-11-08T17:54:56.707Z,9.70
2022-11-08T17:57:23.333Z,9.37
2022-11-08T17:59:50.522Z,9.50
2022-11-08T18:02:17.402Z,9.37
2022-11-08T18:04:44.290Z,9.10
2022-11-08T18:07:10.972Z,9.80
2022-11-08T18:09:37.768Z,9.33
2022-11-08T18:12:16.228Z,8.57
2022-11-08T18:14:49.267Z,8.73
2022-11-08T18:17:15.883Z,10.07
2022-11-08T18:19:44.739Z,9.13
2022-11-08T18:22:11.389Z,9.10
2022-11-08T18:24:49.910Z,10.50
2022-11-08T18:27:17.252Z,10.50
2022-11-08T18:29:44.092Z,10.47
2022-11-08T18:32:10.763Z,11.20
2022-11-08T18:34:37.415Z,11.97
2022-11-08T18:37:04.117Z,11.20
2022-11-08T18:39:30.758Z,11.13
2022-11-08T18:41:57.325Z,10.80
2022-11-08T18:44:24.055Z,11.80
2022-11-08T18:46:50.831Z,11.90
2022-11-08T18:49:17.503Z,14.57
2022-11-08T18:51:44.233Z,12.87
2022-11-08T18:54:10.863Z,13.43
2022-11-08T18:56:38.765Z,14.33
2022-11-08T18:59:06.538Z,13.13
2022-11-08T19:01:33.191Z,13.83
2022-11-08T19:03:59.853Z,14.67
2022-11-08T19:06:26.640Z,13.67
2022-11-08T19:08:53.709Z,13.77
2022-11-08T19:11:22.952Z,13.77
2022-11-08T19:13:49.809Z,13.47
2022-11-08T19:16:18.991Z,13.70
2022-11-08T19:18:46.874Z,13.10
2022-11-08T19:21:16.421Z,13.47
2022-11-08T19:23:43.615Z,14.00
2022-11-08T19:26:13.425Z,12.97
2022-11-08T19:28:42.480Z,13.80
2022-11-08T19:31:09.138Z,13.17
2022-11-08T19:33:36.385Z,12.17
2022-11-08T19:36:05.974Z,12.60
2022-11-08T19:38:37.453Z,12.47
2022-11-08T19:41:06.228Z,11.03
2022-11-08T19:43:37.898Z,11.63
2022-11-08T19:46:07.904Z,12.73
2022-11-08T19:48:37.671Z,12.97
2022-11-08T19:51:07.031Z,14.10
2022-11-08T19:53:34.368Z,14.10
2022-11-08T19:56:02.517Z,14.90
2022-11-08T19:58:31.696Z,16.07
2022-11-08T20:00:58.440Z,15.00
2022-11-08T20:03:25.276Z,13.67
2022-11-08T20:05:53.688Z,13.07
2022-11-08T20:08:21.478Z,12.93
2022-11-08T20:10:49.894Z,13.30
2022-11-08T20:13:16.550Z,13.20
2022-11-08T20:15:43.357Z,13.93
2022-11-08T20:18:11.381Z,15.40
2022-11-08T20:20:42.310Z,13.30
2022-11-08T20:23:09.832Z,13.20
2022-11-08T20:25:36.480Z,12.87
2022-11-08T20:28:03.760Z,13.23
2022-11-08T20:30:30.948Z,13.97
2022-11-08T20:32:57.691Z,12.87
2022-11-08T20:35:24.292Z,13.27
2022-11-08T20:37:51.096Z,13.83
2022-11-08T20:40:17.710Z,13.93
2022-11-08T20:42:50.433Z,13.73
2022-11-08T20:45:17.202Z,13.17
2022-11-08T20:47:43.891Z,14.37
2022-11-08T20:50:11.129Z,13.93
2022-11-08T20:52:40.585Z,13.53
2022-11-08T20:55:07.426Z,13.40
2022-11-08T20:57:34.008Z,12.57
2022-11-08T21:00:13.185Z,14.33
2022-11-08T21:02:40.497Z,13.13
2022-11-08T21:05:25.446Z,14.23
2022-11-08T21:08:57.319Z,13.93
2022-11-08T21:11:05.016Z,12.93
2022-11-08T21:13:33.750Z,12.83
2022-11-08T21:16:19.747Z,13.43
2022-11-08T21:18:47.823Z,12.37
2022-11-08T21:21:17.351Z,11.77
2022-11-08T21:23:46.881Z,11.90
2022-11-08T21:26:15.158Z,11.73
2022-11-08T21:31:53.360Z,12.50
2022-11-08T21:34:20.023Z,13.37
2022-11-08T21:36:46.588Z,12.00
2022-11-08T21:39:14.240Z,11.87
2022-11-08T21:41:40.913Z,11.77
2022-11-08T21:44:07.511Z,11.50
2022-11-08T21:46:34.084Z,11.20
2022-11-08T21:49:03.581Z,11.83
2022-11-08T21:51:31.479Z,12.00
2022-11-08T21:53:59.093Z,11.13
2022-11-08T21:56:29.385Z,11.20
2022-11-08T21:58:56.277Z,10.53
2022-11-08T22:01:27.184Z,12.03
2022-11-08T22:03:56.438Z,11.57
2022-11-08T22:06:23.178Z,11.47
2022-11-08T22:08:49.940Z,11.07
2022-11-08T22:11:16.522Z,11.33
2022-11-08T22:13:43.145Z,11.67
2022-11-08T22:16:09.925Z,10.90
2022-11-08T22:18:58.651Z,10.87
2022-11-08T22:21:40.532Z,10.90
2022-11-08T22:24:08.804Z,10.83
2022-11-08T22:26:36.087Z,10.70
2022-11-08T22:29:03.487Z,10.47
2022-11-08T22:31:31.147Z,11.53
2022-11-08T22:33:57.726Z,10.53
2022-11-08T22:36:24.565Z,10.63
2022-11-08T22:38:51.266Z,9.53
2022-11-08T22:41:19.884Z,9.90
2022-11-08T22:43:47.394Z,10.17
2022-11-08T22:46:14.694Z,10.70
2022-11-08T22:48:41.439Z,10.77
2022-11-08T22:51:08.381Z,11.10
2022-11-08T22:53:35.416Z,9.67
2022-11-08T22:56:08.300Z,10.73
2022-11-08T22:58:37.931Z,9.87
2022-11-08T23:01:05.149Z,11.03
2022-11-08T23:03:32.034Z,10.03
2022-11-08T23:05:58.744Z,10.33
2022-11-08T23:08:26.967Z,10.70
2022-11-08T23:11:12.842Z,10.27
2022-11-08T23:13:58.344Z,10.00
2022-11-08T23:16:37.769Z,11.70
2022-11-08T23:19:25.886Z,11.53
2022-11-08T23:22:12.755Z,12.17
2022-11-08T23:24:40.609Z,10.63
2022-11-08T23:27:26.005Z,11.70
2022-11-08T23:30:11.133Z,10.60
2022-11-08T23:32:43.249Z,11.67
2022-11-08T23:35:10.634Z,11.23
2022-11-08T23:37:37.459Z,12.73
2022-11-08T23:40:24.380Z,10.37
2022-11-08T23:43:24.470Z,10.33
2022-11-08T23:45:51.509Z,11.73
2022-11-08T23:48:18.199Z,11.07
2022-11-08T23:50:53.014Z,11.33
2022-11-08T23:53:22.234Z,10.77
2022-11-08T23:55:49.056Z,11.00
2022-11-08T23:58:15.745Z,10.47
